aviador You're here:

SCCY Decoded Metar

COYHAIQUE in CHILE
Report Time2017-08-19 01:00:00
UTC Time2017-08-19 01:52:08
Flight Rules mvfr MVFR
WindCalm
Visibility9999 m
Phenomena:Light Rain
Clouds:Overcast 024 Hf
Expected CloudBase > 400 ft AGL from Temp-Dew spread
Ceiling2,400 ft
Temp01°C (ISA -12)
Dew Point00°C (93% RH)
AAT-1.0°C
QNH0997 hPa
Density Alt200 ft
Elevation1,020 ft
Report Wrong Elevation
Raw Report
SCCY 190100Z AUTO 00000KT 9999 -RA OVC024 01/00 Q0997=

Extra information for SCCY:More info

Metar Taf Metar & Taf Last 4 Metars F.Rules Stats Wind Profile Meteogram Temp Stats Airport Information Weather charts Add Link Nearby VenuesMetar ALERT Operation Metar Decoded Social comments